sensor_id;sensor_type;location;lat;lon;timestamp;P1;durP1;ratioP1;P2;durP2;ratioP2
25169;SDS011;13129;48.012;10.352;2022-12-16T07:28:22;45.33;;;26.13;;
25169;SDS011;13129;48.012;10.352;2022-12-16T07:31:06;42.15;;;26.88;;
25169;SDS011;13129;48.012;10.352;2022-12-16T07:33:50;45.85;;;27.85;;
25169;SDS011;13129;48.012;10.352;2022-12-16T07:36:34;49.08;;;30.20;;
25169;SDS011;13129;48.012;10.352;2022-12-16T07:39:18;48.60;;;29.05;;
25169;SDS011;13129;48.012;10.352;2022-12-16T07:42:02;41.85;;;26.52;;
25169;SDS011;13129;48.012;10.352;2022-12-16T07:44:46;44.53;;;28.73;;
25169;SDS011;13129;48.012;10.352;2022-12-16T07:47:31;44.40;;;28.52;;
25169;SDS011;13129;48.012;10.352;2022-12-16T07:50:15;36.83;;;24.80;;
25169;SDS011;13129;48.012;10.352;2022-12-16T07:53:00;47.95;;;30.15;;
25169;SDS011;13129;48.012;10.352;2022-12-16T07:55:44;46.38;;;29.20;;
25169;SDS011;13129;48.012;10.352;2022-12-16T07:58:28;48.53;;;29.48;;
25169;SDS011;13129;48.012;10.352;2022-12-16T08:01:13;43.47;;;28.98;;
25169;SDS011;13129;48.012;10.352;2022-12-16T08:03:57;42.97;;;28.45;;
25169;SDS011;13129;48.012;10.352;2022-12-16T08:06:42;40.97;;;26.70;;
25169;SDS011;13129;48.012;10.352;2022-12-16T08:09:26;41.15;;;27.23;;
25169;SDS011;13129;48.012;10.352;2022-12-16T08:12:10;42.00;;;26.40;;
25169;SDS011;13129;48.012;10.352;2022-12-16T08:14:54;39.17;;;26.05;;
25169;SDS011;13129;48.012;10.352;2022-12-16T08:17:41;44.17;;;28.13;;
25169;SDS011;13129;48.012;10.352;2022-12-16T08:20:35;41.83;;;26.40;;
25169;SDS011;13129;48.012;10.352;2022-12-16T08:23:21;42.55;;;26.77;;
25169;SDS011;13129;48.012;10.352;2022-12-16T08:26:23;42.40;;;26.80;;
25169;SDS011;13129;48.012;10.352;2022-12-16T08:29:07;47.15;;;27.77;;
25169;SDS011;13129;48.012;10.352;2022-12-16T08:31:53;44.60;;;28.83;;
25169;SDS011;13129;48.012;10.352;2022-12-16T08:34:37;46.42;;;28.77;;
25169;SDS011;13129;48.012;10.352;2022-12-16T08:37:21;43.88;;;27.73;;
25169;SDS011;13129;48.012;10.352;2022-12-16T08:40:05;38.83;;;25.70;;
25169;SDS011;13129;48.012;10.352;2022-12-16T08:42:50;40.20;;;24.50;;
25169;SDS011;13129;48.012;10.352;2022-12-16T08:45:34;47.17;;;27.42;;
25169;SDS011;13129;48.012;10.352;2022-12-16T08:48:18;36.00;;;26.35;;
25169;SDS011;13129;48.012;10.352;2022-12-16T08:51:03;41.40;;;27.98;;
25169;SDS011;13129;48.012;10.352;2022-12-16T08:53:48;51.00;;;31.55;;
25169;SDS011;13129;48.012;10.352;2022-12-16T08:56:33;56.95;;;37.78;;
25169;SDS011;13129;48.012;10.352;2022-12-16T08:59:18;47.67;;;30.67;;
25169;SDS011;13129;48.012;10.352;2022-12-16T09:02:13;46.00;;;29.30;;
25169;SDS011;13129;48.012;10.352;2022-12-16T09:05:02;59.05;;;38.58;;
25169;SDS011;13129;48.012;10.352;2022-12-16T09:07:46;54.45;;;36.33;;
25169;SDS011;13129;48.012;10.352;2022-12-16T09:10:30;41.15;;;29.83;;
25169;SDS011;13129;48.012;10.352;2022-12-16T09:13:15;42.83;;;28.73;;
25169;SDS011;13129;48.012;10.352;2022-12-16T09:15:59;47.03;;;31.13;;
25169;SDS011;13129;48.012;10.352;2022-12-16T09:18:43;46.70;;;31.38;;
25169;SDS011;13129;48.012;10.352;2022-12-16T09:21:28;43.92;;;28.63;;
25169;SDS011;13129;48.012;10.352;2022-12-16T09:24:12;57.92;;;37.42;;
25169;SDS011;13129;48.012;10.352;2022-12-16T09:26:56;53.20;;;34.75;;
25169;SDS011;13129;48.012;10.352;2022-12-16T09:29:40;57.22;;;36.92;;
25169;SDS011;13129;48.012;10.352;2022-12-16T09:32:25;43.58;;;29.80;;
25169;SDS011;13129;48.012;10.352;2022-12-16T09:35:09;43.47;;;28.95;;
25169;SDS011;13129;48.012;10.352;2022-12-16T09:40:41;69.25;;;41.17;;
25169;SDS011;13129;48.012;10.352;2022-12-16T09:46:12;49.15;;;35.17;;
25169;SDS011;13129;48.012;10.352;2022-12-16T09:52:32;44.35;;;30.58;;
25169;SDS011;13129;48.012;10.352;2022-12-16T09:55:33;43.65;;;29.55;;
25169;SDS011;13129;48.012;10.352;2022-12-16T09:58:22;48.25;;;30.85;;
25169;SDS011;13129;48.012;10.352;2022-12-16T10:01:10;44.95;;;29.65;;
25169;SDS011;13129;48.012;10.352;2022-12-16T10:03:56;51.97;;;34.22;;
25169;SDS011;13129;48.012;10.352;2022-12-16T10:06:43;45.97;;;31.63;;
25169;SDS011;13129;48.012;10.352;2022-12-16T10:12:35;45.80;;;30.05;;
25169;SDS011;13129;48.012;10.352;2022-12-16T10:15:42;44.08;;;29.25;;
25169;SDS011;13129;48.012;10.352;2022-12-16T10:24:37;40.97;;;28.00;;
25169;SDS011;13129;48.012;10.352;2022-12-16T10:27:33;43.67;;;28.38;;
25169;SDS011;13129;48.012;10.352;2022-12-16T10:30:28;45.50;;;28.35;;
25169;SDS011;13129;48.012;10.352;2022-12-16T10:33:14;44.38;;;30.48;;
25169;SDS011;13129;48.012;10.352;2022-12-16T10:35:59;43.50;;;28.38;;
25169;SDS011;13129;48.012;10.352;2022-12-16T10:41:31;40.50;;;28.10;;
25169;SDS011;13129;48.012;10.352;2022-12-16T10:44:34;38.20;;;24.40;;
25169;SDS011;13129;48.012;10.352;2022-12-16T10:47:40;34.92;;;23.90;;
25169;SDS011;13129;48.012;10.352;2022-12-16T10:50:24;34.58;;;24.63;;
25169;SDS011;13129;48.012;10.352;2022-12-16T10:53:11;32.05;;;23.58;;
25169;SDS011;13129;48.012;10.352;2022-12-16T10:59:10;37.67;;;24.15;;
25169;SDS011;13129;48.012;10.352;2022-12-16T11:01:55;33.97;;;25.70;;
25169;SDS011;13129;48.012;10.352;2022-12-16T11:04:41;37.28;;;25.95;;
25169;SDS011;13129;48.012;10.352;2022-12-16T11:10:55;36.63;;;25.88;;
25169;SDS011;13129;48.012;10.352;2022-12-16T11:13:41;32.35;;;23.52;;
25169;SDS011;13129;48.012;10.352;2022-12-16T11:16:25;34.45;;;24.70;;
25169;SDS011;13129;48.012;10.352;2022-12-16T11:19:22;37.55;;;26.33;;
25169;SDS011;13129;48.012;10.352;2022-12-16T11:22:21;39.08;;;26.13;;
25169;SDS011;13129;48.012;10.352;2022-12-16T11:25:14;35.88;;;25.55;;
25169;SDS011;13129;48.012;10.352;2022-12-16T11:28:04;36.35;;;25.58;;
25169;SDS011;13129;48.012;10.352;2022-12-16T11:34:10;38.22;;;25.25;;
25169;SDS011;13129;48.012;10.352;2022-12-16T11:36:54;35.10;;;25.40;;
25169;SDS011;13129;48.012;10.352;2022-12-16T11:39:39;33.33;;;25.00;;
25169;SDS011;13129;48.012;10.352;2022-12-16T11:42:24;41.00;;;27.17;;
25169;SDS011;13129;48.012;10.352;2022-12-16T11:45:28;34.92;;;25.38;;
25169;SDS011;13129;48.012;10.352;2022-12-16T11:48:17;38.42;;;26.65;;
25169;SDS011;13129;48.012;10.352;2022-12-16T11:51:18;38.28;;;26.08;;
25169;SDS011;13129;48.012;10.352;2022-12-16T11:54:11;38.05;;;27.48;;
25169;SDS011;13129;48.012;10.352;2022-12-16T11:57:15;41.90;;;27.83;;
25169;SDS011;13129;48.012;10.352;2022-12-16T12:00:00;40.42;;;26.75;;
25169;SDS011;13129;48.012;10.352;2022-12-16T12:26:56;40.08;;;27.48;;
25169;SDS011;13129;48.012;10.352;2022-12-16T12:38:55;37.20;;;26.20;;
25169;SDS011;13129;48.012;10.352;2022-12-16T12:41:48;33.88;;;26.20;;
25169;SDS011;13129;48.012;10.352;2022-12-16T12:47:46;38.15;;;27.25;;
25169;SDS011;13129;48.012;10.352;2022-12-16T12:51:27;35.15;;;26.42;;
25169;SDS011;13129;48.012;10.352;2022-12-16T12:57:03;39.58;;;26.65;;
25169;SDS011;13129;48.012;10.352;2022-12-16T13:00:02;39.47;;;27.58;;
25169;SDS011;13129;48.012;10.352;2022-12-16T13:05:45;27.67;;;22.42;;
25169;SDS011;13129;48.012;10.352;2022-12-16T13:11:33;34.65;;;27.27;;
25169;SDS011;13129;48.012;10.352;2022-12-16T13:17:14;39.90;;;27.02;;
25169;SDS011;13129;48.012;10.352;2022-12-16T13:20:02;38.08;;;27.70;;
25169;SDS011;13129;48.012;10.352;2022-12-16T13:22:48;35.63;;;25.52;;
25169;SDS011;13129;48.012;10.352;2022-12-16T13:29:01;40.13;;;27.38;;
25169;SDS011;13129;48.012;10.352;2022-12-16T13:34:59;38.75;;;26.55;;
25169;SDS011;13129;48.012;10.352;2022-12-16T13:41:04;36.40;;;25.90;;
25169;SDS011;13129;48.012;10.352;2022-12-16T13:44:08;38.33;;;26.52;;
25169;SDS011;13129;48.012;10.352;2022-12-16T13:46:54;36.20;;;26.35;;
25169;SDS011;13129;48.012;10.352;2022-12-16T13:49:43;41.55;;;28.35;;
25169;SDS011;13129;48.012;10.352;2022-12-16T14:01:21;44.50;;;27.67;;
25169;SDS011;13129;48.012;10.352;2022-12-16T14:04:34;41.13;;;27.38;;
25169;SDS011;13129;48.012;10.352;2022-12-16T14:07:26;42.25;;;28.55;;
25169;SDS011;13129;48.012;10.352;2022-12-16T14:10:31;41.42;;;27.23;;
25169;SDS011;13129;48.012;10.352;2022-12-16T14:13:20;45.05;;;29.05;;
25169;SDS011;13129;48.012;10.352;2022-12-16T14:16:13;42.15;;;28.33;;
25169;SDS011;13129;48.012;10.352;2022-12-16T14:19:18;41.35;;;28.17;;
25169;SDS011;13129;48.012;10.352;2022-12-16T14:25:18;41.70;;;27.23;;
25169;SDS011;13129;48.012;10.352;2022-12-16T14:31:13;41.38;;;26.30;;
25169;SDS011;13129;48.012;10.352;2022-12-16T14:40:22;42.05;;;25.27;;
25169;SDS011;13129;48.012;10.352;2022-12-16T14:46:05;44.83;;;28.02;;
25169;SDS011;13129;48.012;10.352;2022-12-16T14:48:59;37.45;;;24.40;;
25169;SDS011;13129;48.012;10.352;2022-12-16T14:51:44;41.30;;;28.23;;
25169;SDS011;13129;48.012;10.352;2022-12-16T14:54:39;42.58;;;30.00;;
25169;SDS011;13129;48.012;10.352;2022-12-16T14:57:29;53.70;;;35.05;;
25169;SDS011;13129;48.012;10.352;2022-12-16T15:06:03;64.00;;;37.35;;
25169;SDS011;13129;48.012;10.352;2022-12-16T15:11:39;44.33;;;27.05;;
25169;SDS011;13129;48.012;10.352;2022-12-16T15:14:30;41.95;;;27.40;;
25169;SDS011;13129;48.012;10.352;2022-12-16T15:17:20;38.38;;;27.35;;
25169;SDS011;13129;48.012;10.352;2022-12-16T15:20:18;45.53;;;28.30;;
25169;SDS011;13129;48.012;10.352;2022-12-16T15:23:16;43.30;;;28.15;;
25169;SDS011;13129;48.012;10.352;2022-12-16T15:26:02;40.35;;;27.23;;
25169;SDS011;13129;48.012;10.352;2022-12-16T15:28:49;40.83;;;26.80;;
25169;SDS011;13129;48.012;10.352;2022-12-16T15:31:35;42.40;;;26.52;;
25169;SDS011;13129;48.012;10.352;2022-12-16T15:37:15;40.45;;;25.98;;
25169;SDS011;13129;48.012;10.352;2022-12-16T15:40:01;45.28;;;27.98;;
25169;SDS011;13129;48.012;10.352;2022-12-16T15:42:48;48.08;;;29.83;;
25169;SDS011;13129;48.012;10.352;2022-12-16T15:45:34;42.47;;;28.33;;
25169;SDS011;13129;48.012;10.352;2022-12-16T15:51:19;42.17;;;25.45;;
25169;SDS011;13129;48.012;10.352;2022-12-16T15:54:11;41.83;;;26.20;;
25169;SDS011;13129;48.012;10.352;2022-12-16T15:57:25;42.60;;;25.70;;
25169;SDS011;13129;48.012;10.352;2022-12-16T16:03:16;42.47;;;27.00;;
25169;SDS011;13129;48.012;10.352;2022-12-16T16:06:22;42.08;;;27.08;;
25169;SDS011;13129;48.012;10.352;2022-12-16T16:09:22;43.40;;;27.83;;
25169;SDS011;13129;48.012;10.352;2022-12-16T16:12:12;46.13;;;27.13;;
25169;SDS011;13129;48.012;10.352;2022-12-16T16:14:58;46.97;;;29.92;;
25169;SDS011;13129;48.012;10.352;2022-12-16T16:17:43;50.25;;;30.95;;
25169;SDS011;13129;48.012;10.352;2022-12-16T16:20:29;48.85;;;30.10;;
25169;SDS011;13129;48.012;10.352;2022-12-16T16:23:13;45.50;;;30.95;;
25169;SDS011;13129;48.012;10.352;2022-12-16T16:25:57;45.70;;;28.85;;
25169;SDS011;13129;48.012;10.352;2022-12-16T16:28:44;47.95;;;30.88;;
25169;SDS011;13129;48.012;10.352;2022-12-16T16:31:28;47.05;;;29.30;;
25169;SDS011;13129;48.012;10.352;2022-12-16T16:37:16;44.17;;;26.00;;
25169;SDS011;13129;48.012;10.352;2022-12-16T16:40:09;38.67;;;23.52;;
25169;SDS011;13129;48.012;10.352;2022-12-16T16:43:07;35.10;;;23.17;;
25169;SDS011;13129;48.012;10.352;2022-12-16T16:45:52;38.17;;;25.17;;
25169;SDS011;13129;48.012;10.352;2022-12-16T16:48:37;50.30;;;30.65;;
25169;SDS011;13129;48.012;10.352;2022-12-16T16:51:22;41.78;;;27.27;;
25169;SDS011;13129;48.012;10.352;2022-12-16T16:54:06;55.17;;;32.10;;
25169;SDS011;13129;48.012;10.352;2022-12-16T16:56:51;49.58;;;30.73;;
25169;SDS011;13129;48.012;10.352;2022-12-16T16:59:35;50.03;;;30.27;;
25169;SDS011;13129;48.012;10.352;2022-12-16T17:02:20;51.47;;;30.17;;
25169;SDS011;13129;48.012;10.352;2022-12-16T17:05:08;46.97;;;32.58;;
25169;SDS011;13129;48.012;10.352;2022-12-16T17:07:54;52.55;;;35.50;;
25169;SDS011;13129;48.012;10.352;2022-12-16T17:10:39;41.17;;;28.75;;
25169;SDS011;13129;48.012;10.352;2022-12-16T17:13:23;39.83;;;28.38;;
25169;SDS011;13129;48.012;10.352;2022-12-16T17:16:08;49.42;;;30.05;;
25169;SDS011;13129;48.012;10.352;2022-12-16T17:18:55;47.70;;;30.23;;
25169;SDS011;13129;48.012;10.352;2022-12-16T17:21:48;47.65;;;29.67;;
25169;SDS011;13129;48.012;10.352;2022-12-16T17:24:32;47.45;;;28.73;;
25169;SDS011;13129;48.012;10.352;2022-12-16T17:27:17;39.40;;;27.10;;
25169;SDS011;13129;48.012;10.352;2022-12-16T17:30:05;40.30;;;26.33;;
25169;SDS011;13129;48.012;10.352;2022-12-16T17:32:56;41.10;;;24.65;;
25169;SDS011;13129;48.012;10.352;2022-12-16T17:35:40;42.00;;;23.73;;
25169;SDS011;13129;48.012;10.352;2022-12-16T17:38:25;41.03;;;23.75;;
25169;SDS011;13129;48.012;10.352;2022-12-16T17:41:10;40.95;;;24.73;;
25169;SDS011;13129;48.012;10.352;2022-12-16T17:43:54;40.45;;;23.27;;
25169;SDS011;13129;48.012;10.352;2022-12-16T17:46:39;36.63;;;22.80;;
25169;SDS011;13129;48.012;10.352;2022-12-16T17:49:24;42.22;;;24.48;;
25169;SDS011;13129;48.012;10.352;2022-12-16T17:52:08;39.30;;;24.80;;
25169;SDS011;13129;48.012;10.352;2022-12-16T17:54:59;42.20;;;24.17;;
25169;SDS011;13129;48.012;10.352;2022-12-16T17:57:44;39.53;;;24.13;;
25169;SDS011;13129;48.012;10.352;2022-12-16T18:00:43;40.40;;;26.25;;
25169;SDS011;13129;48.012;10.352;2022-12-16T18:03:49;40.78;;;24.00;;
25169;SDS011;13129;48.012;10.352;2022-12-16T18:06:34;40.80;;;26.90;;
25169;SDS011;13129;48.012;10.352;2022-12-16T18:09:18;39.72;;;23.40;;
25169;SDS011;13129;48.012;10.352;2022-12-16T18:12:03;35.65;;;23.40;;
25169;SDS011;13129;48.012;10.352;2022-12-16T18:14:55;36.30;;;24.10;;
25169;SDS011;13129;48.012;10.352;2022-12-16T18:17:39;41.97;;;24.75;;
25169;SDS011;13129;48.012;10.352;2022-12-16T18:20:23;44.33;;;26.08;;
25169;SDS011;13129;48.012;10.352;2022-12-16T18:23:07;39.28;;;24.88;;
25169;SDS011;13129;48.012;10.352;2022-12-16T18:28:54;42.78;;;25.92;;
25169;SDS011;13129;48.012;10.352;2022-12-16T18:31:39;40.83;;;24.58;;
25169;SDS011;13129;48.012;10.352;2022-12-16T18:34:23;40.95;;;25.90;;
25169;SDS011;13129;48.012;10.352;2022-12-16T18:37:08;44.97;;;24.58;;
25169;SDS011;13129;48.012;10.352;2022-12-16T18:39:54;40.22;;;26.85;;
25169;SDS011;13129;48.012;10.352;2022-12-16T18:42:44;40.20;;;24.00;;
25169;SDS011;13129;48.012;10.352;2022-12-16T18:45:29;43.38;;;26.40;;
25169;SDS011;13129;48.012;10.352;2022-12-16T18:48:13;40.58;;;25.20;;
25169;SDS011;13129;48.012;10.352;2022-12-16T18:50:58;45.05;;;27.10;;
25169;SDS011;13129;48.012;10.352;2022-12-16T18:53:43;42.75;;;24.88;;
25169;SDS011;13129;48.012;10.352;2022-12-16T18:56:29;43.92;;;25.92;;
25169;SDS011;13129;48.012;10.352;2022-12-16T18:59:14;39.70;;;25.17;;
25169;SDS011;13129;48.012;10.352;2022-12-16T19:01:58;40.47;;;25.88;;
25169;SDS011;13129;48.012;10.352;2022-12-16T19:04:43;42.08;;;25.67;;
25169;SDS011;13129;48.012;10.352;2022-12-16T19:07:27;40.78;;;25.83;;
25169;SDS011;13129;48.012;10.352;2022-12-16T19:10:11;37.08;;;24.90;;
25169;SDS011;13129;48.012;10.352;2022-12-16T19:12:56;41.72;;;26.85;;
25169;SDS011;13129;48.012;10.352;2022-12-16T19:15:41;44.72;;;25.40;;
25169;SDS011;13129;48.012;10.352;2022-12-16T19:18:34;42.53;;;26.30;;
25169;SDS011;13129;48.012;10.352;2022-12-16T19:21:18;41.33;;;25.55;;
25169;SDS011;13129;48.012;10.352;2022-12-16T19:24:03;43.22;;;26.92;;
25169;SDS011;13129;48.012;10.352;2022-12-16T19:26:47;41.15;;;26.98;;
25169;SDS011;13129;48.012;10.352;2022-12-16T19:29:31;47.05;;;27.48;;
25169;SDS011;13129;48.012;10.352;2022-12-16T19:32:15;38.80;;;25.65;;
25169;SDS011;13129;48.012;10.352;2022-12-16T19:34:59;38.70;;;24.90;;
25169;SDS011;13129;48.012;10.352;2022-12-16T19:37:43;37.15;;;24.13;;
25169;SDS011;13129;48.012;10.352;2022-12-16T19:40:27;37.40;;;25.38;;
25169;SDS011;13129;48.012;10.352;2022-12-16T19:43:11;34.40;;;23.92;;
25169;SDS011;13129;48.012;10.352;2022-12-16T19:45:55;38.50;;;24.35;;
25169;SDS011;13129;48.012;10.352;2022-12-16T19:48:39;35.30;;;24.20;;
25169;SDS011;13129;48.012;10.352;2022-12-16T19:51:28;34.00;;;24.23;;
25169;SDS011;13129;48.012;10.352;2022-12-16T19:54:12;33.47;;;23.10;;
25169;SDS011;13129;48.012;10.352;2022-12-16T19:56:56;37.50;;;23.95;;
25169;SDS011;13129;48.012;10.352;2022-12-16T19:59:40;39.20;;;24.40;;
25169;SDS011;13129;48.012;10.352;2022-12-16T20:02:24;33.65;;;23.73;;
25169;SDS011;13129;48.012;10.352;2022-12-16T20:05:09;34.92;;;24.02;;
25169;SDS011;13129;48.012;10.352;2022-12-16T20:07:53;36.75;;;24.92;;
25169;SDS011;13129;48.012;10.352;2022-12-16T20:10:37;35.80;;;25.30;;
25169;SDS011;13129;48.012;10.352;2022-12-16T20:13:21;36.42;;;24.73;;
25169;SDS011;13129;48.012;10.352;2022-12-16T20:16:07;34.65;;;23.50;;
25169;SDS011;13129;48.012;10.352;2022-12-16T20:18:53;43.00;;;25.33;;
25169;SDS011;13129;48.012;10.352;2022-12-16T20:21:37;38.25;;;24.02;;
25169;SDS011;13129;48.012;10.352;2022-12-16T20:24:22;37.47;;;25.45;;
25169;SDS011;13129;48.012;10.352;2022-12-16T20:27:06;45.72;;;27.00;;
25169;SDS011;13129;48.012;10.352;2022-12-16T20:29:50;42.80;;;28.50;;
25169;SDS011;13129;48.012;10.352;2022-12-16T20:32:34;45.40;;;27.05;;
25169;SDS011;13129;48.012;10.352;2022-12-16T20:35:18;44.67;;;27.08;;
25169;SDS011;13129;48.012;10.352;2022-12-16T20:38:02;41.65;;;25.08;;
25169;SDS011;13129;48.012;10.352;2022-12-16T20:40:56;45.42;;;27.20;;
25169;SDS011;13129;48.012;10.352;2022-12-16T20:43:41;43.58;;;27.02;;
25169;SDS011;13129;48.012;10.352;2022-12-16T20:46:26;41.10;;;26.73;;
25169;SDS011;13129;48.012;10.352;2022-12-16T20:49:11;38.70;;;25.05;;
25169;SDS011;13129;48.012;10.352;2022-12-16T20:51:56;40.40;;;26.33;;
25169;SDS011;13129;48.012;10.352;2022-12-16T20:54:40;38.95;;;25.50;;
25169;SDS011;13129;48.012;10.352;2022-12-16T20:57:24;35.85;;;24.67;;
25169;SDS011;13129;48.012;10.352;2022-12-16T21:00:09;38.40;;;25.40;;
25169;SDS011;13129;48.012;10.352;2022-12-16T21:02:53;36.60;;;23.88;;
25169;SDS011;13129;48.012;10.352;2022-12-16T21:05:37;33.75;;;23.85;;
25169;SDS011;13129;48.012;10.352;2022-12-16T21:08:21;38.95;;;24.02;;
25169;SDS011;13129;48.012;10.352;2022-12-16T21:11:05;32.95;;;23.23;;
25169;SDS011;13129;48.012;10.352;2022-12-16T21:13:49;36.15;;;24.20;;
25169;SDS011;13129;48.012;10.352;2022-12-16T21:16:34;31.95;;;23.27;;
25169;SDS011;13129;48.012;10.352;2022-12-16T21:19:18;36.38;;;23.98;;
25169;SDS011;13129;48.012;10.352;2022-12-16T21:22:02;33.95;;;24.33;;
25169;SDS011;13129;48.012;10.352;2022-12-16T21:24:56;31.38;;;22.48;;
25169;SDS011;13129;48.012;10.352;2022-12-16T21:27:41;31.05;;;21.90;;
25169;SDS011;13129;48.012;10.352;2022-12-16T21:30:25;28.15;;;21.33;;
25169;SDS011;13129;48.012;10.352;2022-12-16T21:33:14;26.63;;;19.65;;
25169;SDS011;13129;48.012;10.352;2022-12-16T21:36:00;31.67;;;21.30;;
25169;SDS011;13129;48.012;10.352;2022-12-16T21:38:44;27.67;;;19.77;;
25169;SDS011;13129;48.012;10.352;2022-12-16T21:41:28;27.92;;;21.15;;
25169;SDS011;13129;48.012;10.352;2022-12-16T21:44:12;24.45;;;19.92;;
25169;SDS011;13129;48.012;10.352;2022-12-16T21:46:56;25.77;;;19.38;;
25169;SDS011;13129;48.012;10.352;2022-12-16T21:49:40;30.63;;;21.35;;
25169;SDS011;13129;48.012;10.352;2022-12-16T21:52:25;26.80;;;21.27;;
25169;SDS011;13129;48.012;10.352;2022-12-16T21:55:09;27.50;;;20.52;;
25169;SDS011;13129;48.012;10.352;2022-12-16T21:57:53;28.60;;;21.20;;
25169;SDS011;13129;48.012;10.352;2022-12-16T22:00:54;29.58;;;19.33;;
25169;SDS011;13129;48.012;10.352;2022-12-16T22:03:40;28.00;;;20.55;;
25169;SDS011;13129;48.012;10.352;2022-12-16T22:06:24;29.17;;;21.33;;
25169;SDS011;13129;48.012;10.352;2022-12-16T22:09:09;26.15;;;20.27;;
25169;SDS011;13129;48.012;10.352;2022-12-16T22:11:54;28.40;;;20.70;;
25169;SDS011;13129;48.012;10.352;2022-12-16T22:14:38;28.23;;;21.15;;
25169;SDS011;13129;48.012;10.352;2022-12-16T22:17:22;27.58;;;20.67;;
25169;SDS011;13129;48.012;10.352;2022-12-16T22:20:06;27.23;;;19.85;;
25169;SDS011;13129;48.012;10.352;2022-12-16T22:22:51;27.75;;;20.85;;
25169;SDS011;13129;48.012;10.352;2022-12-16T22:25:35;28.63;;;22.00;;
25169;SDS011;13129;48.012;10.352;2022-12-16T22:28:19;28.35;;;20.52;;
25169;SDS011;13129;48.012;10.352;2022-12-16T22:31:03;28.17;;;21.58;;
25169;SDS011;13129;48.012;10.352;2022-12-16T22:33:47;32.53;;;22.20;;
25169;SDS011;13129;48.012;10.352;2022-12-16T22:36:32;29.95;;;21.85;;
25169;SDS011;13129;48.012;10.352;2022-12-16T22:39:16;35.47;;;22.23;;
25169;SDS011;13129;48.012;10.352;2022-12-16T22:42:00;31.25;;;22.80;;
25169;SDS011;13129;48.012;10.352;2022-12-16T22:44:44;30.80;;;22.08;;
25169;SDS011;13129;48.012;10.352;2022-12-16T22:47:29;34.45;;;22.75;;
25169;SDS011;13129;48.012;10.352;2022-12-16T22:50:14;35.00;;;22.55;;
25169;SDS011;13129;48.012;10.352;2022-12-16T22:53:05;32.28;;;22.60;;
25169;SDS011;13129;48.012;10.352;2022-12-16T22:55:53;30.85;;;23.52;;
25169;SDS011;13129;48.012;10.352;2022-12-16T22:58:38;30.75;;;22.83;;
25169;SDS011;13129;48.012;10.352;2022-12-16T23:01:22;31.00;;;22.30;;
25169;SDS011;13129;48.012;10.352;2022-12-16T23:04:07;28.25;;;21.13;;
25169;SDS011;13129;48.012;10.352;2022-12-16T23:06:52;32.38;;;22.58;;
25169;SDS011;13129;48.012;10.352;2022-12-16T23:09:36;30.95;;;21.42;;
25169;SDS011;13129;48.012;10.352;2022-12-16T23:12:21;31.17;;;22.02;;
25169;SDS011;13129;48.012;10.352;2022-12-16T23:15:05;32.83;;;21.60;;
25169;SDS011;13129;48.012;10.352;2022-12-16T23:17:50;34.03;;;22.17;;
25169;SDS011;13129;48.012;10.352;2022-12-16T23:20:34;32.40;;;22.92;;
25169;SDS011;13129;48.012;10.352;2022-12-16T23:23:18;31.77;;;22.05;;
25169;SDS011;13129;48.012;10.352;2022-12-16T23:26:02;35.53;;;22.60;;
25169;SDS011;13129;48.012;10.352;2022-12-16T23:28:50;32.67;;;23.02;;
25169;SDS011;13129;48.012;10.352;2022-12-16T23:31:35;31.60;;;22.77;;
25169;SDS011;13129;48.012;10.352;2022-12-16T23:34:20;30.20;;;21.33;;
25169;SDS011;13129;48.012;10.352;2022-12-16T23:37:14;28.15;;;20.45;;
25169;SDS011;13129;48.012;10.352;2022-12-16T23:39:58;30.25;;;20.98;;
25169;SDS011;13129;48.012;10.352;2022-12-16T23:42:43;31.13;;;22.17;;
25169;SDS011;13129;48.012;10.352;2022-12-16T23:45:27;32.58;;;25.13;;
25169;SDS011;13129;48.012;10.352;2022-12-16T23:48:11;32.55;;;22.90;;
25169;SDS011;13129;48.012;10.352;2022-12-16T23:50:55;32.97;;;23.20;;
25169;SDS011;13129;48.012;10.352;2022-12-16T23:53:39;31.08;;;22.15;;
25169;SDS011;13129;48.012;10.352;2022-12-16T23:56:29;28.48;;;21.95;;
25169;SDS011;13129;48.012;10.352;2022-12-16T23:59:46;31.98;;;22.63;;
